METAR AND TAF INFORMATION
METAR FOR PADK
ADDS - METARS form results

(0148 UTC 20 September 2019)
Data provider http://aviationweather.gov/metar/data/
 
METAR text: PADK 200141Z AUTO 36009KT 2 1/2SM -RA BR BKN005 OVC019 10/09 A2970 RMK AO2 P0001
Conditions at: PADK (ADAK NAS , AK, US) observed 0141 UTC 20 September 2019
Temperature: 10.0°C (50°F)
Dewpoint: 9.0°C (48°F) [RH = 93%]
Pressure (altimeter): 29.70 inches Hg (1005.8 mb)
Winds: from the N (360 degrees) at 10 MPH (9 knots; 4.6 m/s)
Visibility: 2.50 miles (4.02 km)
Ceiling: 500 feet AGL
Clouds: broken clouds at 500 feet AGL
overcast cloud deck at 1900 feet AGL
Weather: -RA BR  (light rain, mist)

METAR text: PADK 200131Z AUTO 36012KT 3SM -RA BR BKN005 OVC019 10/09 A2970 RMK AO2 P0001
Conditions at: PADK (ADAK NAS , AK, US) observed 0131 UTC 20 September 2019
Temperature: 10.0°C (50°F)
Dewpoint: 9.0°C (48°F) [RH = 93%]
Pressure (altimeter): 29.70 inches Hg (1005.8 mb)
Winds: from the N (360 degrees) at 14 MPH (12 knots; 6.2 m/s)
Visibility: 3 miles ( 5 km)
Ceiling: 500 feet AGL
Clouds: broken clouds at 500 feet AGL
overcast cloud deck at 1900 feet AGL
Weather: -RA BR  (light rain, mist)

METAR text: PADK 200056Z AUTO 36014G18KT 4SM -RA BR OVC007 10/09 A2969 RMK AO2 SLP053 P0002 T01000094
Conditions at: PADK (ADAK NAS , AK, US) observed 0056 UTC 20 September 2019
Temperature: 10.0°C (50°F)
Dewpoint: 9.4°C (49°F) [RH = 96%]
Pressure (altimeter): 29.69 inches Hg (1005.5 mb)
[Sea-level pressure: 1005.3 mb]
Winds: from the N (360 degrees) at 16 MPH (14 knots; 7.2 m/s)
gusting to 21 MPH (18 knots; 9.3 m/s)
Visibility: 4 miles ( 6 km)
Ceiling: 700 feet AGL
Clouds: overcast cloud deck at 700 feet AGL
Weather: -RA BR  (light rain, mist)

 AIRPORT MAP

 RUNWAY INFORMATION
Runway 05 Runway length 7790 ft Runway width 200 ft
Runway elevation 17 ft Runway displaced threshold 0 ft Runway heading 61
Runway 23 Runway length 7790 ft Runway width 200 ft
Runway elevation 15 ft Runway displaced threshold 0 ft Runway heading 241
Runway 18 Runway length 7605 ft Runway width 200 ft
Runway elevation 6 ft Runway displaced threshold 0 ft Runway heading 185
Runway 36 Runway length 7605 ft Runway width 200 ft
Runway elevation 4 ft Runway displaced threshold 0 ft Runway heading 5

 AIRPORT FREQUENCIES

 AIRPORT NEAR NAVIGATION AIDS
Type NDB-DME Name Mount Moffett Frequency 530 KHZ
Type TACAN Name Adak Frequency 113000 KHZ